createdAt,value
2019-05-20T00:01:16.233Z,17.98
2019-05-20T00:03:44.765Z,18.00
2019-05-20T00:06:13.606Z,18.05
2019-05-20T00:08:42.129Z,18.10
2019-05-20T00:11:10.630Z,18.07
2019-05-20T00:13:39.145Z,17.95
2019-05-20T00:16:07.656Z,17.77
2019-05-20T00:18:36.160Z,17.97
2019-05-20T00:21:05.149Z,17.86
2019-05-20T00:23:33.663Z,17.87
2019-05-20T00:26:02.339Z,18.07
2019-05-20T00:28:30.853Z,18.00
2019-05-20T00:30:59.375Z,18.05
2019-05-20T00:33:27.878Z,17.95
2019-05-20T00:35:56.385Z,17.76
2019-05-20T00:38:24.911Z,17.68
2019-05-20T00:40:53.437Z,17.36
2019-05-20T00:43:22.008Z,17.27
2019-05-20T00:45:50.604Z,17.31
2019-05-20T00:48:19.195Z,17.33
2019-05-20T00:50:47.774Z,17.55
2019-05-20T00:53:16.646Z,17.39
2019-05-20T00:55:45.447Z,17.47
2019-05-20T00:58:13.997Z,17.59
2019-05-20T01:00:42.823Z,17.62
2019-05-20T01:03:11.612Z,17.73
2019-05-20T01:05:40.153Z,17.83
2019-05-20T01:08:08.665Z,17.77
2019-05-20T01:10:37.172Z,17.70
2019-05-20T01:13:05.713Z,17.78
2019-05-20T01:15:34.545Z,17.82
2019-05-20T01:18:03.449Z,17.77
2019-05-20T01:20:32.032Z,17.66
2019-05-20T01:23:00.650Z,17.46
2019-05-20T01:25:29.209Z,17.51
2019-05-20T01:27:57.726Z,17.57
2019-05-20T01:30:26.251Z,17.30
2019-05-20T01:32:54.856Z,17.46
2019-05-20T01:35:23.425Z,17.49
2019-05-20T01:37:52.212Z,17.43
2019-05-20T01:40:20.811Z,17.47
2019-05-20T01:42:49.314Z,17.36
2019-05-20T01:45:17.856Z,17.41
2019-05-20T01:47:46.384Z,17.12
2019-05-20T01:50:14.911Z,17.30
2019-05-20T01:52:43.802Z,16.97
2019-05-20T01:55:12.324Z,16.62
2019-05-20T01:57:40.859Z,16.86
2019-05-20T02:00:09.628Z,16.99
2019-05-20T02:02:38.476Z,16.71
2019-05-20T02:05:07.151Z,16.62
2019-05-20T02:07:35.803Z,16.64
2019-05-20T02:10:04.832Z,16.65
2019-05-20T02:12:33.382Z,16.76
2019-05-20T02:15:07.907Z,16.79
2019-05-20T02:17:36.441Z,16.80
2019-05-20T02:20:05.883Z,16.49
2019-05-20T02:22:34.450Z,16.16
2019-05-20T02:25:02.991Z,16.39
2019-05-20T02:27:31.482Z,16.27
2019-05-20T02:30:00.024Z,16.23
2019-05-20T02:32:28.817Z,16.19
2019-05-20T02:34:57.470Z,16.06
2019-05-20T02:37:25.974Z,16.11
2019-05-20T02:39:54.806Z,15.96
2019-05-20T02:42:23.315Z,15.90
2019-05-20T02:44:51.827Z,16.01
2019-05-20T02:47:20.380Z,15.93
2019-05-20T02:49:49.016Z,15.81
2019-05-20T02:52:17.871Z,15.83
2019-05-20T02:54:46.399Z,15.81
2019-05-20T02:57:15.302Z,15.66
2019-05-20T02:59:43.825Z,15.80
2019-05-20T03:02:12.342Z,15.87
2019-05-20T03:04:40.839Z,15.91
2019-05-20T03:07:09.382Z,15.92
2019-05-20T03:09:37.887Z,15.97
2019-05-20T03:12:06.402Z,15.81
2019-05-20T03:14:34.942Z,15.81
2019-05-20T03:17:03.700Z,15.62
2019-05-20T03:19:32.459Z,15.92
2019-05-20T03:22:00.996Z,16.06
2019-05-20T03:24:29.771Z,16.05
2019-05-20T03:26:58.299Z,16.03
2019-05-20T03:29:27.198Z,16.06
2019-05-20T03:31:55.713Z,16.00
2019-05-20T03:34:45.093Z,15.90
2019-05-20T03:36:54.451Z,15.31
2019-05-20T03:39:22.975Z,15.37
2019-05-20T03:41:51.500Z,15.30
2019-05-20T03:44:20.005Z,15.78
2019-05-20T03:46:48.833Z,16.02
2019-05-20T03:49:17.259Z,16.11
2019-05-20T03:51:46.020Z,16.27
2019-05-20T03:54:14.532Z,16.37
2019-05-20T03:56:43.071Z,16.50
2019-05-20T03:59:11.565Z,16.56
2019-05-20T04:01:40.096Z,16.71
2019-05-20T04:04:08.786Z,16.86
2019-05-20T04:06:37.315Z,16.91
2019-05-20T04:09:07.255Z,16.91
2019-05-20T04:11:35.801Z,17.08
2019-05-20T04:14:04.310Z,17.29
2019-05-20T04:16:32.829Z,17.20
2019-05-20T04:19:01.338Z,17.19
2019-05-20T04:21:29.828Z,17.40
2019-05-20T04:24:01.200Z,17.59
2019-05-20T04:26:28.563Z,17.82
2019-05-20T04:28:57.192Z,17.76
2019-05-20T04:31:25.684Z,17.78
2019-05-20T04:33:54.701Z,17.99
2019-05-20T04:36:23.537Z,18.24
2019-05-20T04:38:55.051Z,18.26
2019-05-20T04:41:23.567Z,18.30
2019-05-20T04:43:52.089Z,18.23
2019-05-20T04:46:20.589Z,18.36
2019-05-20T04:48:49.448Z,18.39
2019-05-20T04:51:18.345Z,18.38
2019-05-20T04:53:46.864Z,18.35
2019-05-20T04:56:15.414Z,18.26
2019-05-20T04:58:44.175Z,18.18
2019-05-20T05:01:12.708Z,18.22
2019-05-20T05:03:41.310Z,18.22
2019-05-20T05:06:10.052Z,18.44
2019-05-20T05:08:38.558Z,18.62
2019-05-20T05:11:07.083Z,18.44
2019-05-20T05:13:35.994Z,18.26
2019-05-20T05:16:04.547Z,18.12
2019-05-20T05:18:33.379Z,17.97
2019-05-20T05:21:02.018Z,18.14
2019-05-20T05:23:30.859Z,18.29
2019-05-20T05:25:59.387Z,18.26
2019-05-20T05:28:27.889Z,18.34
2019-05-20T05:30:56.463Z,18.29
2019-05-20T05:33:24.987Z,18.69
2019-05-20T05:35:53.970Z,18.84
2019-05-20T05:38:22.506Z,18.85
2019-05-20T05:40:51.019Z,18.77
2019-05-20T05:43:19.553Z,18.31
2019-05-20T05:45:48.117Z,18.06
2019-05-20T05:48:16.575Z,18.24
2019-05-20T05:50:45.324Z,18.36
2019-05-20T05:53:14.175Z,18.41
2019-05-20T05:55:42.938Z,18.43
2019-05-20T05:58:11.509Z,18.43
2019-05-20T06:00:40.102Z,18.52
2019-05-20T06:03:08.595Z,18.62
2019-05-20T06:05:37.407Z,18.95
2019-05-20T06:08:06.207Z,18.91
2019-05-20T06:10:35.841Z,19.05
2019-05-20T06:13:05.181Z,19.16
2019-05-20T06:15:34.116Z,19.10
2019-05-20T06:18:02.634Z,18.76
2019-05-20T06:20:31.183Z,18.67
2019-05-20T06:22:59.679Z,18.65
2019-05-20T06:25:28.196Z,18.55
2019-05-20T06:27:56.696Z,18.46
2019-05-20T06:30:37.171Z,18.31
2019-05-20T06:33:05.667Z,18.34
2019-05-20T06:35:34.498Z,18.36
2019-05-20T06:38:04.940Z,18.22
2019-05-20T06:40:33.476Z,18.28
2019-05-20T06:43:02.275Z,18.17
2019-05-20T06:45:30.809Z,18.16
2019-05-20T06:47:59.340Z,18.39
2019-05-20T06:50:29.758Z,18.60
2019-05-20T06:52:58.163Z,18.75
2019-05-20T06:55:27.060Z,18.83
2019-05-20T06:57:55.575Z,18.65
2019-05-20T07:00:35.102Z,18.69
2019-05-20T07:03:03.830Z,18.62
2019-05-20T07:05:32.644Z,19.13
2019-05-20T07:08:01.556Z,19.22
2019-05-20T07:10:30.231Z,19.20
2019-05-20T07:12:59.028Z,19.63
2019-05-20T07:15:27.518Z,19.51
2019-05-20T07:17:57.135Z,19.84
2019-05-20T07:20:25.623Z,20.06
2019-05-20T07:22:56.231Z,20.02
2019-05-20T07:25:24.401Z,20.05
2019-05-20T07:27:52.889Z,20.09
2019-05-20T07:30:21.630Z,20.18
2019-05-20T07:32:50.203Z,20.44
2019-05-20T07:35:29.355Z,20.64
2019-05-20T07:37:49.288Z,20.66
2019-05-20T07:40:29.062Z,20.73
2019-05-20T07:42:57.887Z,20.57
2019-05-20T07:45:26.857Z,20.91
2019-05-20T07:47:55.326Z,20.63
2019-05-20T07:50:24.178Z,20.35
2019-05-20T07:52:52.896Z,20.46
2019-05-20T07:55:21.457Z,20.73
2019-05-20T07:57:49.912Z,20.59
2019-05-20T08:00:18.682Z,20.61
2019-05-20T08:02:47.208Z,20.45
2019-05-20T08:05:15.717Z,20.18
2019-05-20T08:07:51.975Z,19.60
2019-05-20T08:10:14.446Z,19.54
2019-05-20T08:12:42.966Z,19.33
2019-05-20T08:15:11.483Z,18.91
2019-05-20T08:17:40.335Z,18.74
2019-05-20T08:20:08.856Z,18.66
2019-05-20T08:22:37.392Z,18.64
2019-05-20T08:25:06.286Z,18.35
2019-05-20T08:27:34.835Z,18.30
2019-05-20T08:30:03.361Z,18.32
2019-05-20T08:32:31.895Z,18.39
2019-05-20T08:35:00.659Z,18.31
2019-05-20T08:37:44.283Z,18.29
2019-05-20T08:39:59.667Z,18.38
2019-05-20T08:42:28.288Z,18.46
2019-05-20T08:44:56.747Z,18.56
2019-05-20T08:47:25.273Z,18.48
2019-05-20T08:49:54.416Z,18.63
2019-05-20T08:52:23.418Z,18.71
2019-05-20T08:54:51.884Z,18.96
2019-05-20T08:57:20.409Z,19.16
2019-05-20T08:59:48.991Z,19.78
2019-05-20T09:02:17.542Z,20.29
2019-05-20T09:04:46.451Z,20.81
2019-05-20T09:07:15.066Z,20.81
2019-05-20T09:09:43.887Z,21.30
2019-05-20T09:12:12.415Z,21.56
2019-05-20T09:14:41.045Z,22.20
2019-05-20T09:17:09.540Z,22.52
2019-05-20T09:19:38.349Z,22.98
2019-05-20T09:22:06.859Z,23.22
2019-05-20T09:24:36.263Z,23.36
2019-05-20T09:27:05.308Z,23.01
2019-05-20T09:29:33.760Z,23.22
2019-05-20T09:32:02.286Z,24.33
2019-05-20T09:34:31.104Z,23.57
2019-05-20T09:36:59.985Z,23.58
2019-05-20T09:39:28.484Z,23.19
2019-05-20T09:41:57.254Z,22.75
2019-05-20T09:44:25.787Z,22.72
2019-05-20T09:46:54.522Z,22.37
2019-05-20T09:49:23.134Z,22.40
2019-05-20T09:51:51.858Z,22.27
2019-05-20T09:54:20.407Z,22.25
2019-05-20T09:56:49.215Z,21.97
2019-05-20T09:59:17.697Z,22.05
2019-05-20T10:01:46.238Z,21.96
2019-05-20T10:04:14.727Z,21.24
2019-05-20T10:06:43.523Z,20.99
2019-05-20T10:09:12.011Z,20.28
2019-05-20T10:11:40.556Z,20.00
2019-05-20T10:14:09.065Z,19.93
2019-05-20T10:16:37.966Z,19.65
2019-05-20T10:19:06.442Z,19.67
2019-05-20T10:21:34.956Z,19.95
2019-05-20T10:24:03.919Z,20.54
2019-05-20T10:26:32.395Z,20.55
2019-05-20T10:29:00.907Z,20.67
2019-05-20T10:31:29.716Z,21.31
2019-05-20T10:33:58.940Z,21.39
2019-05-20T10:36:27.449Z,21.37
2019-05-20T10:38:58.999Z,21.17
2019-05-20T10:41:29.354Z,20.80
2019-05-20T10:43:56.671Z,21.06
2019-05-20T10:46:25.222Z,20.91
2019-05-20T10:48:53.735Z,20.74
2019-05-20T10:51:22.748Z,20.68
2019-05-20T10:53:51.479Z,20.46
2019-05-20T10:56:19.998Z,19.79
2019-05-20T10:58:48.895Z,19.90
2019-05-20T11:01:17.350Z,19.76
2019-05-20T11:03:46.213Z,19.48
2019-05-20T11:06:14.746Z,19.18
2019-05-20T11:08:43.380Z,19.00
2019-05-20T11:11:14.307Z,18.67
2019-05-20T11:13:42.514Z,18.43
2019-05-20T11:16:11.054Z,17.99
2019-05-20T11:18:39.875Z,18.03
2019-05-20T11:21:08.519Z,18.02
2019-05-20T11:23:37.032Z,17.92
2019-05-20T11:26:05.558Z,17.91
2019-05-20T11:28:34.100Z,18.07
2019-05-20T11:31:02.575Z,18.17
2019-05-20T11:33:31.084Z,18.27
2019-05-20T11:35:59.558Z,18.69
2019-05-20T11:38:28.526Z,18.98
2019-05-20T11:40:57.657Z,19.52
2019-05-20T11:43:26.163Z,20.04
2019-05-20T11:45:55.034Z,19.89
2019-05-20T11:48:23.630Z,20.27
2019-05-20T11:50:52.328Z,20.57
2019-05-20T11:53:20.864Z,20.61
2019-05-20T11:55:49.360Z,20.58
2019-05-20T11:58:18.239Z,20.23
2019-05-20T12:00:47.091Z,19.91
2019-05-20T12:03:15.667Z,19.96
2019-05-20T12:05:44.163Z,19.96
2019-05-20T12:08:12.655Z,20.04
2019-05-20T12:10:41.153Z,19.19
2019-05-20T12:13:09.659Z,19.39
2019-05-20T12:15:38.154Z,19.79
2019-05-20T12:18:06.768Z,18.51
2019-05-20T12:20:35.262Z,18.27
2019-05-20T12:23:03.794Z,17.75
2019-05-20T12:25:32.279Z,17.59
2019-05-20T12:28:01.090Z,18.16
2019-05-20T12:30:29.528Z,18.12
2019-05-20T12:33:17.053Z,18.33
2019-05-20T12:35:29.011Z,18.82
2019-05-20T12:37:57.591Z,19.14
2019-05-20T12:40:26.105Z,19.17
2019-05-20T12:42:54.607Z,18.77
2019-05-20T12:45:23.109Z,19.28
2019-05-20T12:47:51.906Z,19.18
2019-05-20T12:50:20.473Z,19.11
2019-05-20T12:52:48.909Z,19.44
2019-05-20T12:55:19.055Z,19.31
2019-05-20T12:57:47.863Z,19.39
2019-05-20T13:00:16.543Z,19.75
2019-05-20T13:02:45.096Z,19.46
2019-05-20T13:05:13.861Z,19.26
2019-05-20T13:07:42.365Z,19.30
2019-05-20T13:10:28.227Z,19.50
2019-05-20T13:12:41.630Z,19.63
2019-05-20T13:15:10.418Z,19.71
2019-05-20T13:17:43.807Z,19.56
2019-05-20T13:20:09.186Z,19.60
2019-05-20T13:22:37.666Z,19.33
2019-05-20T13:25:06.337Z,19.59
2019-05-20T13:27:34.821Z,19.73
2019-05-20T13:30:03.545Z,19.69
2019-05-20T13:32:32.014Z,19.97
2019-05-20T13:35:00.753Z,19.72
2019-05-20T13:37:29.476Z,19.86
2019-05-20T13:40:02.502Z,20.44
2019-05-20T13:42:28.190Z,20.94
2019-05-20T13:44:57.043Z,21.45
2019-05-20T13:47:25.524Z,21.32
2019-05-20T13:49:54.014Z,21.15
2019-05-20T13:52:22.519Z,21.19
2019-05-20T13:54:51.414Z,20.31
2019-05-20T13:57:19.948Z,20.54
2019-05-20T13:59:48.693Z,20.81
2019-05-20T14:02:17.268Z,21.06
2019-05-20T14:04:45.777Z,21.30
2019-05-20T14:07:14.297Z,21.47
2019-05-20T14:09:43.195Z,21.86
2019-05-20T14:12:11.672Z,22.43
2019-05-20T14:14:40.167Z,22.45
2019-05-20T14:17:08.683Z,23.07
2019-05-20T14:19:37.355Z,23.07
2019-05-20T14:22:05.874Z,23.36
2019-05-20T14:24:34.415Z,24.14
2019-05-20T14:27:03.052Z,23.68
2019-05-20T14:29:31.842Z,23.38
2019-05-20T14:32:00.356Z,23.70
2019-05-20T14:34:29.140Z,24.29
2019-05-20T14:36:57.939Z,24.11
2019-05-20T14:39:26.411Z,23.60
2019-05-20T14:41:55.207Z,22.75
2019-05-20T14:44:23.796Z,22.77
2019-05-20T14:46:52.303Z,22.90
2019-05-20T14:49:20.891Z,23.02
2019-05-20T14:51:49.786Z,23.29
2019-05-20T14:54:18.283Z,23.53
2019-05-20T14:56:46.799Z,23.62
2019-05-20T14:59:15.586Z,23.52
2019-05-20T15:01:44.094Z,23.99
2019-05-20T15:04:12.873Z,24.28
2019-05-20T15:06:41.776Z,24.30
2019-05-20T15:09:10.342Z,23.84
2019-05-20T15:11:39.192Z,23.81
2019-05-20T15:14:07.729Z,23.36
2019-05-20T15:16:36.247Z,23.52
2019-05-20T15:19:05.037Z,23.09
2019-05-20T15:21:33.827Z,23.28
2019-05-20T15:24:02.739Z,23.57
2019-05-20T15:26:31.288Z,22.93
2019-05-20T15:28:59.812Z,22.61
2019-05-20T15:31:28.313Z,22.65
2019-05-20T15:33:57.095Z,22.46
2019-05-20T15:36:25.599Z,22.07
2019-05-20T15:38:54.116Z,21.67
2019-05-20T15:41:22.893Z,21.74
2019-05-20T15:43:51.552Z,21.59
2019-05-20T15:46:20.101Z,21.41
2019-05-20T15:48:48.621Z,21.38
2019-05-20T15:51:17.172Z,21.31
2019-05-20T15:53:45.674Z,21.33
2019-05-20T15:56:14.513Z,21.46
2019-05-20T15:58:43.014Z,21.29
2019-05-20T16:01:11.798Z,21.31
2019-05-20T16:03:40.300Z,21.11
2019-05-20T16:06:08.794Z,21.08
2019-05-20T16:08:37.294Z,20.89
2019-05-20T16:11:06.928Z,20.78
2019-05-20T16:13:35.743Z,20.69
2019-05-20T16:16:04.913Z,20.90
2019-05-20T16:18:33.399Z,20.91
2019-05-20T16:21:01.943Z,21.12
2019-05-20T16:23:30.783Z,21.10
2019-05-20T16:25:59.297Z,20.83
2019-05-20T16:28:28.161Z,20.60
2019-05-20T16:30:56.641Z,20.71
2019-05-20T16:33:25.180Z,20.71
2019-05-20T16:35:53.986Z,20.65
2019-05-20T16:38:22.539Z,20.34
2019-05-20T16:40:51.042Z,20.32
2019-05-20T16:43:19.554Z,20.10
2019-05-20T16:45:48.055Z,20.09
2019-05-20T16:48:16.553Z,19.98
2019-05-20T16:50:45.048Z,20.14
2019-05-20T16:53:13.567Z,20.40
2019-05-20T16:55:42.219Z,19.96
2019-05-20T16:58:10.724Z,19.90
2019-05-20T17:00:39.222Z,19.70
2019-05-20T17:03:08.022Z,19.65
2019-05-20T17:05:36.598Z,19.73
2019-05-20T17:08:05.118Z,19.77
2019-05-20T17:10:33.649Z,19.55
2019-05-20T17:13:02.171Z,19.62
2019-05-20T17:15:30.984Z,19.50
2019-05-20T17:17:59.529Z,19.50
2019-05-20T17:20:28.084Z,19.52
2019-05-20T17:22:56.869Z,19.60
2019-05-20T17:25:25.445Z,19.36
2019-05-20T17:27:53.890Z,19.36
2019-05-20T17:30:22.401Z,19.26
2019-05-20T17:32:50.893Z,19.18
2019-05-20T17:35:19.590Z,18.99
2019-05-20T17:37:48.159Z,18.81
2019-05-20T17:40:17.227Z,18.59
2019-05-20T17:42:45.737Z,18.48
2019-05-20T17:45:14.232Z,18.47
2019-05-20T17:47:43.175Z,18.53
2019-05-20T17:50:11.767Z,18.70
2019-05-20T17:52:40.251Z,18.82
2019-05-20T17:55:08.925Z,18.88
2019-05-20T17:57:37.496Z,18.42
2019-05-20T18:00:07.376Z,18.56
2019-05-20T18:02:35.870Z,18.51
2019-05-20T18:05:04.804Z,18.47
2019-05-20T18:07:33.592Z,18.33
2019-05-20T18:10:02.386Z,18.20
2019-05-20T18:12:31.220Z,18.22
2019-05-20T18:15:01.383Z,18.34
2019-05-20T18:17:29.854Z,18.47
2019-05-20T18:19:58.362Z,18.24
2019-05-20T18:22:26.882Z,18.14
2019-05-20T18:24:55.396Z,17.98
2019-05-20T18:27:23.879Z,17.91
2019-05-20T18:29:52.387Z,17.78
2019-05-20T18:32:20.930Z,17.84
2019-05-20T18:34:49.500Z,17.80
2019-05-20T18:37:18.352Z,17.81
2019-05-20T18:39:47.180Z,17.86
2019-05-20T18:42:15.777Z,17.61
2019-05-20T18:44:44.278Z,17.55
2019-05-20T18:47:12.782Z,17.50
2019-05-20T18:49:41.496Z,17.47
2019-05-20T18:52:10.131Z,17.40
2019-05-20T18:54:38.687Z,17.30
2019-05-20T18:57:07.511Z,17.35
2019-05-20T18:59:36.099Z,17.23
2019-05-20T19:02:05.803Z,17.30
2019-05-20T19:04:34.535Z,17.37
2019-05-20T19:07:03.054Z,17.19
2019-05-20T19:09:31.549Z,17.17
2019-05-20T19:12:00.067Z,17.11
2019-05-20T19:14:28.622Z,17.12
2019-05-20T19:16:57.381Z,17.11
2019-05-20T19:19:25.931Z,16.99
2019-05-20T19:21:54.530Z,17.08
2019-05-20T19:24:23.259Z,17.07
2019-05-20T19:26:52.054Z,17.10
2019-05-20T19:29:20.628Z,17.07
2019-05-20T19:32:00.877Z,16.89
2019-05-20T19:34:19.521Z,16.85
2019-05-20T19:36:48.426Z,16.98
2019-05-20T19:39:17.332Z,16.87
2019-05-20T19:41:45.871Z,16.98
2019-05-20T19:44:14.867Z,17.00
2019-05-20T19:46:43.374Z,16.77
2019-05-20T19:49:11.913Z,16.75
2019-05-20T19:51:40.444Z,16.68
2019-05-20T19:54:09.053Z,16.92
2019-05-20T19:56:37.671Z,16.85
2019-05-20T19:59:06.413Z,16.86
2019-05-20T20:01:34.926Z,16.91
2019-05-20T20:04:03.481Z,16.97
2019-05-20T20:06:32.334Z,16.85
2019-05-20T20:09:01.175Z,16.86
2019-05-20T20:11:29.717Z,16.96
2019-05-20T20:13:58.227Z,16.87
2019-05-20T20:16:26.899Z,16.87
2019-05-20T20:18:55.444Z,16.83
2019-05-20T20:21:24.300Z,16.79
2019-05-20T20:23:53.064Z,16.80
2019-05-20T20:26:21.575Z,16.83
2019-05-20T20:28:50.175Z,17.02
2019-05-20T20:31:18.673Z,16.93
2019-05-20T20:33:47.202Z,17.08
2019-05-20T20:36:15.735Z,16.92
2019-05-20T20:38:44.324Z,16.89
2019-05-20T20:41:12.871Z,16.81
2019-05-20T20:43:41.405Z,16.89
2019-05-20T20:46:09.921Z,17.10
2019-05-20T20:48:38.439Z,17.06
2019-05-20T20:51:06.946Z,17.16
2019-05-20T20:53:35.487Z,17.28
2019-05-20T20:56:04.003Z,17.47
2019-05-20T20:58:32.863Z,17.33
2019-05-20T21:01:01.371Z,17.32
2019-05-20T21:03:30.228Z,17.24
2019-05-20T21:05:58.758Z,17.32
2019-05-20T21:08:27.260Z,17.40
2019-05-20T21:10:55.771Z,17.27
2019-05-20T21:13:24.271Z,17.49
2019-05-20T21:15:52.765Z,17.33
2019-05-20T21:18:21.287Z,17.24
2019-05-20T21:20:50.106Z,17.11
2019-05-20T21:23:18.785Z,17.16
2019-05-20T21:25:47.278Z,17.08
2019-05-20T21:28:15.786Z,17.04
2019-05-20T21:30:44.294Z,17.18
2019-05-20T21:33:12.797Z,17.01
2019-05-20T21:35:41.341Z,16.86
2019-05-20T21:38:10.203Z,16.94
2019-05-20T21:40:38.693Z,17.25
2019-05-20T21:43:07.208Z,17.03
2019-05-20T21:45:35.717Z,17.16
2019-05-20T21:48:06.099Z,17.08
2019-05-20T21:50:34.608Z,17.06
2019-05-20T21:53:03.590Z,16.91
2019-05-20T21:55:32.106Z,16.97
2019-05-20T21:58:00.632Z,16.84
2019-05-20T22:00:41.038Z,16.76
2019-05-20T22:03:23.647Z,16.91
2019-05-20T22:05:40.150Z,16.97
2019-05-20T22:08:08.750Z,16.89
2019-05-20T22:10:37.226Z,17.11
2019-05-20T22:13:05.734Z,17.06
2019-05-20T22:15:34.278Z,16.93
2019-05-20T22:18:04.459Z,17.02
2019-05-20T22:20:33.508Z,17.14
2019-05-20T22:23:19.945Z,16.89
2019-05-20T22:25:49.058Z,17.11
2019-05-20T22:28:17.556Z,16.90
2019-05-20T22:30:46.350Z,16.95
2019-05-20T22:33:14.858Z,16.91
2019-05-20T22:35:43.691Z,17.16
2019-05-20T22:38:12.470Z,16.86
2019-05-20T22:40:41.287Z,16.89
2019-05-20T22:43:09.782Z,16.95
2019-05-20T22:45:38.397Z,16.86
2019-05-20T22:48:06.924Z,16.79
2019-05-20T22:50:35.814Z,16.83
2019-05-20T22:53:04.309Z,16.97
2019-05-20T22:55:33.127Z,17.07
2019-05-20T22:58:01.639Z,17.16
2019-05-20T23:00:30.178Z,17.21
2019-05-20T23:02:59.254Z,17.14
2019-05-20T23:05:27.779Z,17.15
2019-05-20T23:07:56.558Z,17.10
2019-05-20T23:10:25.045Z,16.82
2019-05-20T23:12:53.547Z,16.85
2019-05-20T23:15:22.057Z,16.79
2019-05-20T23:17:50.570Z,16.87
2019-05-20T23:20:19.354Z,16.89
2019-05-20T23:22:47.876Z,16.90
2019-05-20T23:25:16.417Z,16.93
2019-05-20T23:27:45.200Z,16.97
2019-05-20T23:30:13.712Z,16.90
2019-05-20T23:32:42.316Z,16.75
2019-05-20T23:35:10.842Z,16.99
2019-05-20T23:37:39.392Z,16.94
2019-05-20T23:40:07.932Z,17.07
2019-05-20T23:42:36.469Z,17.02
2019-05-20T23:45:05.499Z,17.26
2019-05-20T23:47:34.009Z,17.13
2019-05-20T23:50:02.538Z,17.14
2019-05-20T23:52:31.365Z,17.03
2019-05-20T23:54:59.906Z,17.09
2019-05-20T23:57:28.521Z,17.10
2019-05-20T23:59:57.333Z,17.16
